Fukuoka Airport
RJFF : now visible

Airfield :











YOU CAN JOIN US ON...

 
LOGIN :

Register | Disclaimer

   EN    FR    IT 

 









Legend :    VFR   Marginal VFR   IFR   Intensive IFR   Very Intensive IFR
Visi :
Ceiling :
>= 8 km
>= 3000ft
5 to 8 km
1000 to 3000 ft
1500m to 5 km
500 to 1000 ft
800 to 1500m
200 to 500 ft
< 800m
< 200 ft
Symbols :   Thunderstorms  Fog  Heavy snow  Heavy precipitations  Wind > 20 kt






- Airport Elevation : 32 ft
- IATA code : FUK


RJFF - Fukuoka

CURRENT METAR :
  • 310500Z 15010KT 9999 FEW020 28/18 Q1009 NOSIG RMK 1CU020 A2980

EXPIRED METARs :
  • 310430Z 15011KT 090V170 9999 FEW020 27/18 Q1009 NOSIG RMK 1CU020 A2982
  • 310400Z 16010KT 130V200 9999 FEW020 26/18 Q1010 NOSIG RMK 1CU020 A2983
  • 310330Z 15006KT 070V200 9999 FEW035 27/19 Q1010 BECMG 05005KT
  • 310300Z 03010KT 9999 FEW015 SCT060 25/18 Q1010 NOSIG RMK 1CU015 3SC060 A2985
  • 310230Z 05005KT 360V100 9999 FEW010 SCT020 BKN060 24/18 Q1011 NOSIG RMK 1CU010 3CU020 6SC060 A2987

TAF AMD TAF RJFF
Valid from the 31 at 01:00 until the 01 at 06:00 UTC


310136Z 3101/0106 05005KT 9999 FEW030 SCT040
BECMG 3107/3109 13004KT
BECMG 0100/0103 32008KT
RJJJ FIR / Asia



MET'MAP, your aeronautical weather chart ! - Copyright ORBIFLY December 2007 - Disclaimer

ORBIFLY MET'MAP TEAM :

Programming & Development : Alexandra Zaïnal
Concept & original design : Baudouin d'Aumeries
Assistance for programming : Marc-Olivier Méhu
Technical & hardware support : Manuel Goepfert

Contact : metmap@orbifly.com




SOURCES & CREDITS :

   NOAA       Earth
Advisory